createdAt,value
2023-04-23T00:00:51.037Z,96595.47
2023-04-23T00:02:56.065Z,96599.41
2023-04-23T00:05:06.100Z,96596.38
2023-04-23T00:07:09.231Z,96593.28
2023-04-23T00:09:15.818Z,96593.75
2023-04-23T00:11:18.918Z,96590.03
2023-04-23T00:13:21.767Z,96598.19
2023-04-23T00:15:24.819Z,96591.53
2023-04-23T00:17:27.489Z,96593.31
2023-04-23T00:19:30.067Z,96591.91
2023-04-23T00:21:32.688Z,96592.66
2023-04-23T00:23:35.231Z,96590.88
2023-04-23T00:25:39.160Z,96599.69
2023-04-23T00:27:41.695Z,96595.69
2023-04-23T00:29:46.266Z,96590.78
2023-04-23T00:31:48.968Z,96599.56
2023-04-23T00:33:51.630Z,96592.94
2023-04-23T00:35:54.134Z,96599.94
2023-04-23T00:37:56.743Z,96597.25
2023-04-23T00:39:59.301Z,96600.63
2023-04-23T00:42:10.353Z,96599.66
2023-04-23T00:44:14.067Z,96605.19
2023-04-23T00:46:18.124Z,96597.38
2023-04-23T00:48:21.575Z,96600.44
2023-04-23T00:50:24.262Z,96601.72
2023-04-23T00:52:26.926Z,96602.56
2023-04-23T00:54:29.502Z,96602.66
2023-04-23T00:56:32.077Z,96593.81
2023-04-23T00:58:36.273Z,96600.53
2023-04-23T01:00:46.200Z,96607.31
2023-04-23T01:02:50.493Z,96604.84
2023-04-23T01:04:54.849Z,96615.41
2023-04-23T01:06:58.833Z,96612.50
2023-04-23T01:09:01.927Z,96617.66
2023-04-23T01:11:04.799Z,96614.41
2023-04-23T01:13:07.427Z,96615.78
2023-04-23T01:15:11.993Z,96627.63
2023-04-23T01:17:14.644Z,96626.44
2023-04-23T01:19:17.253Z,96630.63
2023-04-23T01:21:21.021Z,96625.16
2023-04-23T01:23:27.035Z,96621.97
2023-04-23T01:25:29.691Z,96628.66
2023-04-23T01:27:35.824Z,96629.59
2023-04-23T01:29:39.437Z,96619.25
2023-04-23T01:31:42.977Z,96619.06
2023-04-23T01:33:46.696Z,96628.97
2023-04-23T01:35:51.205Z,96622.22
2023-04-23T01:37:56.112Z,96634.16
2023-04-23T01:40:00.989Z,96632.47
2023-04-23T01:42:04.008Z,96650.66
2023-04-23T01:44:07.006Z,96637.31
2023-04-23T01:46:10.427Z,96644.88
2023-04-23T01:48:13.234Z,96648.91
2023-04-23T01:50:16.136Z,96641.69
2023-04-23T01:52:18.804Z,96648.38
2023-04-23T01:54:21.398Z,96658.94
2023-04-23T01:56:27.991Z,96652.09
2023-04-23T01:58:30.556Z,96650.72
2023-04-23T02:00:33.124Z,96659.41
2023-04-23T02:02:36.263Z,96660.16
2023-04-23T02:04:39.997Z,96654.00
2023-04-23T02:06:44.970Z,96658.75
2023-04-23T02:08:47.486Z,96666.56
2023-04-23T02:10:50.107Z,96657.00
2023-04-23T02:12:53.996Z,96661.22
2023-04-23T02:14:56.558Z,96658.94
2023-04-23T02:16:59.099Z,96659.22
2023-04-23T02:19:01.838Z,96661.31
2023-04-23T02:21:04.643Z,96669.53
2023-04-23T02:23:07.410Z,96664.84
2023-04-23T02:25:11.038Z,96673.19
2023-04-23T02:27:13.607Z,96659.34
2023-04-23T02:29:17.538Z,96664.59
2023-04-23T02:31:20.689Z,96664.03
2023-04-23T02:33:23.423Z,96666.75
2023-04-23T02:35:26.816Z,96669.53
2023-04-23T02:37:29.362Z,96668.03
2023-04-23T02:39:32.308Z,96675.72
2023-04-23T02:41:34.848Z,96675.06
2023-04-23T02:43:37.366Z,96676.47
2023-04-23T02:45:41.257Z,96671.69
2023-04-23T02:47:43.776Z,96672.72
2023-04-23T02:49:46.380Z,96677.19
2023-04-23T02:51:48.917Z,96668.78
2023-04-23T02:53:51.510Z,96671.88
2023-04-23T02:55:54.022Z,96665.41
2023-04-23T02:57:56.645Z,96668.13
2023-04-23T02:59:59.166Z,96661.25
2023-04-23T03:02:03.511Z,96657.78
2023-04-23T03:04:06.251Z,96650.09
2023-04-23T03:06:09.457Z,96656.59
2023-04-23T03:08:11.981Z,96654.84
2023-04-23T03:10:14.571Z,96654.41
2023-04-23T03:12:18.214Z,96652.91
2023-04-23T03:14:20.760Z,96642.53
2023-04-23T03:16:23.438Z,96653.81
2023-04-23T03:18:27.407Z,96664.34
2023-04-23T03:20:29.944Z,96660.16
2023-04-23T03:22:32.463Z,96658.06
2023-04-23T03:24:35.838Z,96660.09
2023-04-23T03:26:38.376Z,96658.44
2023-04-23T03:28:40.915Z,96654.88
2023-04-23T03:30:43.674Z,96657.66
2023-04-23T03:32:46.330Z,96653.19
2023-04-23T03:34:50.545Z,96653.19
2023-04-23T03:36:53.097Z,96648.78
2023-04-23T03:38:55.630Z,96652.34
2023-04-23T03:40:58.266Z,96647.00
2023-04-23T03:43:00.932Z,96648.69
2023-04-23T03:45:03.466Z,96631.97
2023-04-23T03:47:06.051Z,96642.16
2023-04-23T03:49:08.630Z,96641.69
2023-04-23T03:51:12.506Z,96648.97
2023-04-23T03:53:15.073Z,96649.16
2023-04-23T03:55:17.636Z,96654.50
2023-04-23T03:57:21.815Z,96658.03
2023-04-23T03:59:24.493Z,96659.88
2023-04-23T04:01:27.049Z,96658.69
2023-04-23T04:03:29.874Z,96659.72
2023-04-23T04:05:32.605Z,96663.94
2023-04-23T04:07:37.114Z,96665.41
2023-04-23T04:09:40.296Z,96670.03
2023-04-23T04:11:42.811Z,96668.16
2023-04-23T04:13:45.349Z,96670.63
2023-04-23T04:15:47.917Z,96668.28
2023-04-23T04:17:50.527Z,96675.47
2023-04-23T04:19:53.120Z,96673.88
2023-04-23T04:21:56.117Z,96673.88
2023-04-23T04:24:01.580Z,96669.47
2023-04-23T04:26:04.816Z,96669.03
2023-04-23T04:28:09.274Z,96669.69
2023-04-23T04:30:12.612Z,96671.00
2023-04-23T04:32:15.154Z,96668.63
2023-04-23T04:34:17.832Z,96668.81
2023-04-23T04:36:20.357Z,96674.81
2023-04-23T04:38:23.117Z,96678.84
2023-04-23T04:40:28.530Z,96672.84
2023-04-23T04:42:31.431Z,96673.44
2023-04-23T04:44:34.004Z,96665.09
2023-04-23T04:46:40.392Z,96665.91
2023-04-23T04:48:42.956Z,96658.34
2023-04-23T04:50:46.460Z,96662.38
2023-04-23T04:52:49.002Z,96658.34
2023-04-23T04:54:51.564Z,96668.06
2023-04-23T04:56:55.447Z,96665.44
2023-04-23T04:58:58.052Z,96660.38
2023-04-23T05:01:01.344Z,96659.81
2023-04-23T05:03:04.746Z,96659.72
2023-04-23T05:05:08.782Z,96656.25
2023-04-23T05:07:11.330Z,96664.28
2023-04-23T05:09:15.790Z,96664.38
2023-04-23T05:11:19.834Z,96667.19
2023-04-23T05:13:23.753Z,96672.47
2023-04-23T05:15:26.297Z,96672.66
2023-04-23T05:17:29.195Z,96677.94
2023-04-23T05:19:32.303Z,96672.72
2023-04-23T05:21:35.205Z,96679.72
2023-04-23T05:23:37.841Z,96670.81
2023-04-23T05:25:41.110Z,96674.25
2023-04-23T05:27:43.651Z,96670.53
2023-04-23T05:29:47.560Z,96676.78
2023-04-23T05:31:50.341Z,96669.03
2023-04-23T05:33:53.715Z,96669.84
2023-04-23T05:35:57.258Z,96674.50
2023-04-23T05:37:59.835Z,96662.47
2023-04-23T05:40:04.832Z,96657.41
2023-04-23T05:42:07.577Z,96661.78
2023-04-23T05:44:10.133Z,96659.00
2023-04-23T05:46:14.064Z,96659.97
2023-04-23T05:48:16.624Z,96663.91
2023-04-23T05:50:19.345Z,96651.72
2023-04-23T05:52:21.918Z,96649.28
2023-04-23T05:54:24.450Z,96643.09
2023-04-23T05:56:27.034Z,96645.38
2023-04-23T05:58:29.583Z,96650.16
2023-04-23T06:00:32.429Z,96648.88
2023-04-23T06:02:36.456Z,96658.09
2023-04-23T06:04:39.338Z,96663.63
2023-04-23T06:06:43.599Z,96658.66
2023-04-23T06:08:46.176Z,96654.34
2023-04-23T06:10:48.834Z,96656.97
2023-04-23T06:12:51.371Z,96662.38
2023-04-23T06:14:54.195Z,96666.66
2023-04-23T06:16:56.730Z,96661.34
2023-04-23T06:19:00.612Z,96664.00
2023-04-23T06:21:04.305Z,96662.84
2023-04-23T06:23:07.324Z,96668.34
2023-04-23T06:25:10.679Z,96669.25
2023-04-23T06:27:14.076Z,96661.97
2023-04-23T06:29:16.724Z,96667.97
2023-04-23T06:31:19.419Z,96663.50
2023-04-23T06:33:21.985Z,96660.25
2023-04-23T06:35:25.891Z,96654.91
2023-04-23T06:37:30.629Z,96654.06
2023-04-23T06:39:33.147Z,96661.69
2023-04-23T06:41:35.706Z,96661.63
2023-04-23T06:43:38.218Z,96659.53
2023-04-23T06:45:40.793Z,96656.53
2023-04-23T06:47:43.432Z,96659.06
2023-04-23T06:49:45.991Z,96661.78
2023-04-23T06:51:49.879Z,96663.56
2023-04-23T06:53:52.404Z,96655.63
2023-04-23T06:55:54.906Z,96655.44
2023-04-23T06:57:57.652Z,96645.38
2023-04-23T07:00:00.285Z,96646.22
2023-04-23T07:02:02.809Z,96643.06
2023-04-23T07:04:05.455Z,96642.00
2023-04-23T07:06:08.302Z,96634.53
2023-04-23T07:08:13.387Z,96632.50
2023-04-23T07:10:17.963Z,96635.84
2023-04-23T07:12:20.843Z,96643.06
2023-04-23T07:14:23.458Z,96643.41
2023-04-23T07:16:26.003Z,96635.66
2023-04-23T07:18:28.569Z,96633.03
2023-04-23T07:20:31.139Z,96641.28
2023-04-23T07:22:33.920Z,96637.81
2023-04-23T07:24:37.841Z,96641.34
2023-04-23T07:26:41.030Z,96624.06
2023-04-23T07:28:43.604Z,96625.63
2023-04-23T07:30:46.262Z,96624.72
2023-04-23T07:32:48.956Z,96624.72
2023-04-23T07:34:51.556Z,96617.88
2023-04-23T07:36:54.136Z,96614.31
2023-04-23T07:38:56.659Z,96617.13
2023-04-23T07:41:00.534Z,96623.78
2023-04-23T07:43:03.091Z,96609.72
2023-04-23T07:45:06.680Z,96604.53
2023-04-23T07:47:09.209Z,96605.50
2023-04-23T07:49:11.784Z,96606.72
2023-04-23T07:51:14.310Z,96604.22
2023-04-23T07:53:16.861Z,96602.41
2023-04-23T07:55:20.344Z,96594.53
2023-04-23T07:57:24.233Z,96600.63
2023-04-23T07:59:26.767Z,96612.00
2023-04-23T08:01:29.690Z,96611.56
2023-04-23T08:03:32.400Z,96615.69
2023-04-23T08:05:37.254Z,96619.75
2023-04-23T08:07:39.846Z,96612.69
2023-04-23T08:09:43.292Z,96610.03
2023-04-23T08:11:46.146Z,96614.84
2023-04-23T08:13:50.235Z,96613.06
2023-04-23T08:15:52.932Z,96607.28
2023-04-23T08:17:55.609Z,96597.13
2023-04-23T08:19:58.322Z,96598.00
2023-04-23T08:22:00.939Z,96590.41
2023-04-23T08:24:04.289Z,96591.91
2023-04-23T08:26:07.316Z,96584.66
2023-04-23T08:28:09.896Z,96584.50
2023-04-23T08:30:14.393Z,96578.41
2023-04-23T08:32:17.033Z,96586.13
2023-04-23T08:34:21.978Z,96588.00
2023-04-23T08:36:24.621Z,96592.16
2023-04-23T08:38:27.219Z,96584.69
2023-04-23T08:40:33.046Z,96577.72
2023-04-23T08:42:41.307Z,96569.22
2023-04-23T08:44:44.007Z,96573.63
2023-04-23T08:46:47.991Z,96570.00
2023-04-23T08:48:53.859Z,96568.09
2023-04-23T08:50:58.156Z,96566.72
2023-04-23T08:53:01.062Z,96571.03
2023-04-23T08:55:10.569Z,96572.16
2023-04-23T08:57:14.903Z,96572.47
2023-04-23T08:59:18.229Z,96569.09
2023-04-23T09:01:20.995Z,96569.00
2023-04-23T09:03:26.429Z,96565.19
2023-04-23T09:05:29.156Z,96557.91
2023-04-23T09:07:31.696Z,96567.66
2023-04-23T09:09:35.736Z,96557.19
2023-04-23T09:11:38.368Z,96559.44
2023-04-23T09:13:41.844Z,96560.28
2023-04-23T09:15:44.576Z,96549.22
2023-04-23T09:17:48.496Z,96540.59
2023-04-23T09:19:55.252Z,96543.69
2023-04-23T09:22:02.117Z,96537.53
2023-04-23T09:24:06.262Z,96523.88
2023-04-23T09:26:09.434Z,96519.88
2023-04-23T09:28:12.148Z,96523.88
2023-04-23T09:30:15.518Z,96517.91
2023-04-23T09:32:18.205Z,96526.69
2023-04-23T09:34:22.457Z,96529.84
2023-04-23T09:36:28.284Z,96534.88
2023-04-23T09:38:31.687Z,96533.50
2023-04-23T09:40:34.780Z,96533.91
2023-04-23T09:42:38.204Z,96535.69
2023-04-23T09:44:40.737Z,96531.41
2023-04-23T09:46:44.779Z,96529.28
2023-04-23T09:48:48.809Z,96517.94
2023-04-23T09:50:51.389Z,96518.88
2023-04-23T09:52:57.046Z,96520.06
2023-04-23T09:54:59.901Z,96513.88
2023-04-23T09:57:04.087Z,96512.94
2023-04-23T09:59:23.010Z,96511.38
2023-04-23T10:01:31.840Z,96513.53
2023-04-23T10:03:34.519Z,96502.44
2023-04-23T10:05:56.296Z,96500.34
2023-04-23T10:08:04.160Z,96488.47
2023-04-23T10:10:08.377Z,96488.16
2023-04-23T10:14:18.128Z,96480.16
2023-04-23T10:16:25.435Z,96477.19
2023-04-23T10:18:33.833Z,96480.31
2023-04-23T10:20:37.852Z,96481.94
2023-04-23T10:22:45.139Z,96473.75
2023-04-23T10:24:55.822Z,96475.53
2023-04-23T10:27:02.106Z,96473.31
2023-04-23T10:29:09.304Z,96468.06
2023-04-23T10:31:11.958Z,96458.22
2023-04-23T10:33:29.045Z,96454.41
2023-04-23T10:35:34.930Z,96453.44
2023-04-23T10:37:39.089Z,96444.81
2023-04-23T10:39:45.104Z,96438.16
2023-04-23T10:41:49.513Z,96436.38
2023-04-23T10:43:53.981Z,96435.88
2023-04-23T10:45:56.532Z,96429.84
2023-04-23T10:47:59.588Z,96427.56
2023-04-23T10:50:19.541Z,96433.69
2023-04-23T10:52:25.238Z,96422.78
2023-04-23T10:54:32.422Z,96421.00
2023-04-23T10:56:35.109Z,96417.16
2023-04-23T10:58:51.715Z,96421.53
2023-04-23T11:00:54.395Z,96418.88
2023-04-23T11:02:57.448Z,96415.16
2023-04-23T11:05:01.820Z,96413.63
2023-04-23T11:07:09.291Z,96417.66
2023-04-23T11:09:32.283Z,96417.66
2023-04-23T11:11:41.286Z,96419.72
2023-04-23T11:13:54.707Z,96408.13
2023-04-23T11:16:19.284Z,96402.38
2023-04-23T11:18:24.853Z,96401.66
2023-04-23T11:20:27.437Z,96405.91
2023-04-23T11:22:35.607Z,96393.72
2023-04-23T11:24:42.067Z,96395.16
2023-04-23T11:26:45.387Z,96392.88
2023-04-23T11:28:50.265Z,96393.50
2023-04-23T11:30:54.708Z,96393.38
2023-04-23T11:33:00.026Z,96394.47
2023-04-23T11:35:05.150Z,96387.97
2023-04-23T11:37:11.310Z,96386.06
2023-04-23T11:39:13.858Z,96379.25
2023-04-23T11:41:17.407Z,96378.63
2023-04-23T11:43:21.319Z,96378.81
2023-04-23T11:45:25.394Z,96369.69
2023-04-23T11:47:29.360Z,96374.59
2023-04-23T11:49:32.002Z,96363.88
2023-04-23T11:51:34.595Z,96360.38
2023-04-23T11:53:37.164Z,96356.91
2023-04-23T11:55:43.889Z,96347.22
2023-04-23T11:57:48.012Z,96354.41
2023-04-23T11:59:50.535Z,96342.69
2023-04-23T12:01:55.854Z,96342.94
2023-04-23T12:03:59.888Z,96343.66
2023-04-23T12:06:02.668Z,96334.19
2023-04-23T12:08:10.003Z,96330.91
2023-04-23T12:10:18.595Z,96316.91
2023-04-23T12:12:21.618Z,96324.00
2023-04-23T12:14:29.835Z,96322.16
2023-04-23T12:16:37.478Z,96325.88
2023-04-23T12:18:42.426Z,96316.97
2023-04-23T12:20:46.973Z,96320.59
2023-04-23T12:22:49.796Z,96316.06
2023-04-23T12:24:54.330Z,96314.72
2023-04-23T12:27:00.677Z,96305.50
2023-04-23T12:29:03.479Z,96304.97
2023-04-23T12:31:06.124Z,96292.06
2023-04-23T12:33:12.462Z,96293.34
2023-04-23T12:35:15.025Z,96288.06
2023-04-23T12:37:18.891Z,96290.75
2023-04-23T12:39:23.444Z,96296.22
2023-04-23T12:41:25.973Z,96289.22
2023-04-23T12:43:28.861Z,96293.38
2023-04-23T12:45:38.233Z,96289.56
2023-04-23T12:47:40.803Z,96287.03
2023-04-23T12:49:43.908Z,96293.16
2023-04-23T12:51:46.763Z,96278.47
2023-04-23T12:53:51.200Z,96278.41
2023-04-23T12:55:53.724Z,96276.84
2023-04-23T12:57:56.367Z,96274.78
2023-04-23T12:59:58.899Z,96267.81
2023-04-23T13:02:03.500Z,96267.59
2023-04-23T13:04:06.531Z,96258.22
2023-04-23T13:06:09.212Z,96256.13
2023-04-23T13:08:11.756Z,96254.88
2023-04-23T13:10:15.760Z,96248.03
2023-04-23T13:12:18.305Z,96248.59
2023-04-23T13:14:21.152Z,96242.34
2023-04-23T13:16:23.737Z,96233.97
2023-04-23T13:18:26.390Z,96239.97
2023-04-23T13:20:28.954Z,96234.22
2023-04-23T13:22:32.039Z,96229.22
2023-04-23T13:24:34.600Z,96225.84
2023-04-23T13:26:38.608Z,96223.34
2023-04-23T13:28:41.278Z,96222.50
2023-04-23T13:30:43.820Z,96213.75
2023-04-23T13:32:46.444Z,96213.75
2023-04-23T13:34:49.056Z,96225.56
2023-04-23T13:36:51.671Z,96223.31
2023-04-23T13:38:54.234Z,96210.78
2023-04-23T13:40:59.323Z,96207.31
2023-04-23T13:43:03.209Z,96199.06
2023-04-23T13:45:07.209Z,96202.31
2023-04-23T13:47:09.873Z,96205.19
2023-04-23T13:49:12.394Z,96197.94
2023-04-23T13:51:33.167Z,96184.41
2023-04-23T13:53:37.068Z,96181.97
2023-04-23T13:55:39.969Z,96177.47
2023-04-23T13:57:42.591Z,96174.03
2023-04-23T13:59:46.492Z,96172.25
2023-04-23T14:01:50.320Z,96166.50
2023-04-23T14:03:52.997Z,96160.91
2023-04-23T14:05:55.524Z,96158.00
2023-04-23T14:07:58.044Z,96154.50
2023-04-23T14:10:00.724Z,96148.53
2023-04-23T14:12:03.630Z,96138.09
2023-04-23T14:14:07.348Z,96137.72
2023-04-23T14:16:11.396Z,96132.78
2023-04-23T14:18:13.960Z,96126.28
2023-04-23T14:20:17.522Z,96130.75
2023-04-23T14:22:20.054Z,96116.47
2023-04-23T14:24:24.630Z,96123.44
2023-04-23T14:26:47.471Z,96123.63
2023-04-23T14:28:52.948Z,96125.94
2023-04-23T14:30:57.628Z,96116.09
2023-04-23T14:33:01.544Z,96119.66
2023-04-23T14:35:04.412Z,96113.50
2023-04-23T14:37:07.129Z,96103.13
2023-04-23T14:39:09.697Z,96098.81
2023-04-23T14:41:12.568Z,96095.41
2023-04-23T14:43:16.266Z,96094.22
2023-04-23T14:45:19.204Z,96090.94
2023-04-23T14:47:21.805Z,96088.91
2023-04-23T14:49:26.315Z,96082.69
2023-04-23T14:51:29.287Z,96081.97
2023-04-23T14:53:32.075Z,96074.75
2023-04-23T14:55:35.556Z,96076.38
2023-04-23T14:57:38.144Z,96072.66
2023-04-23T14:59:41.772Z,96075.13
2023-04-23T15:01:48.011Z,96077.19
2023-04-23T15:03:53.575Z,96070.13
2023-04-23T15:05:57.657Z,96073.13
2023-04-23T15:08:00.163Z,96072.63
2023-04-23T15:10:06.345Z,96068.31
2023-04-23T15:12:43.140Z,96071.81
2023-04-23T15:14:46.191Z,96064.56
2023-04-23T15:16:49.757Z,96068.56
2023-04-23T15:18:52.655Z,96068.75
2023-04-23T15:20:55.265Z,96062.84
2023-04-23T15:22:59.134Z,96061.63
2023-04-23T15:25:01.704Z,96070.16
2023-04-23T15:27:04.539Z,96063.72
2023-04-23T15:29:08.774Z,96076.53
2023-04-23T15:31:12.046Z,96090.16
2023-04-23T15:33:14.619Z,96075.78
2023-04-23T15:35:17.417Z,96073.75
2023-04-23T15:37:21.066Z,96081.97
2023-04-23T15:39:24.989Z,96079.94
2023-04-23T15:41:27.547Z,96079.09
2023-04-23T15:43:30.084Z,96085.09
2023-04-23T15:45:32.656Z,96085.00
2023-04-23T15:47:35.307Z,96075.41
2023-04-23T15:49:41.849Z,96068.63
2023-04-23T15:51:44.826Z,96071.28
2023-04-23T15:53:47.435Z,96064.38
2023-04-23T15:55:52.194Z,96068.84
2023-04-23T15:57:54.764Z,96070.38
2023-04-23T15:59:57.304Z,96075.00
2023-04-23T16:01:59.899Z,96083.34
2023-04-23T16:04:10.469Z,96084.88
2023-04-23T16:06:14.448Z,96095.56
2023-04-23T16:08:19.683Z,96109.59
2023-04-23T16:10:22.301Z,96139.50
2023-04-23T16:12:26.211Z,96216.44
2023-04-23T16:14:28.831Z,96245.81
2023-04-23T16:16:31.694Z,96245.13
2023-04-23T16:18:34.515Z,96229.00
2023-04-23T16:20:37.060Z,96249.63
2023-04-23T16:22:39.676Z,96192.63
2023-04-23T16:24:42.239Z,96150.13
2023-04-23T16:26:44.791Z,96119.81
2023-04-23T16:28:52.335Z,96132.75
2023-04-23T16:31:03.715Z,96148.50
2023-04-23T16:33:06.660Z,96149.13
2023-04-23T16:35:10.028Z,96150.22
2023-04-23T16:37:15.685Z,96161.81
2023-04-23T16:39:18.239Z,96161.56
2023-04-23T16:41:21.397Z,96161.47
2023-04-23T16:43:23.930Z,96153.91
2023-04-23T16:45:27.803Z,96149.72
2023-04-23T16:47:30.319Z,96159.66
2023-04-23T16:49:33.045Z,96156.94
2023-04-23T16:51:35.617Z,96166.59
2023-04-23T16:53:41.130Z,96167.53
2023-04-23T16:55:43.838Z,96154.50
2023-04-23T16:57:46.399Z,96158.72
2023-04-23T16:59:49.048Z,96160.50
2023-04-23T17:01:53.034Z,96154.91
2023-04-23T17:03:55.999Z,96158.81
2023-04-23T17:06:08.428Z,96160.50
2023-04-23T17:08:11.187Z,96168.28
2023-04-23T17:10:15.380Z,96167.78
2023-04-23T17:12:17.975Z,96160.88
2023-04-23T17:14:20.739Z,96157.16
2023-04-23T17:16:25.207Z,96142.81
2023-04-23T17:18:29.258Z,96144.50
2023-04-23T17:20:35.096Z,96145.22
2023-04-23T17:22:37.794Z,96148.19
2023-04-23T17:24:40.766Z,96150.47
2023-04-23T17:26:43.654Z,96140.16
2023-04-23T17:28:46.216Z,96143.03
2023-04-23T17:30:50.319Z,96142.78
2023-04-23T17:32:52.944Z,96138.97
2023-04-23T17:35:08.864Z,96137.31
2023-04-23T17:37:12.964Z,96149.72
2023-04-23T17:39:19.732Z,96150.53
2023-04-23T17:41:22.831Z,96154.72
2023-04-23T17:43:25.833Z,96149.47
2023-04-23T17:45:28.455Z,96152.22
2023-04-23T17:47:31.254Z,96150.44
2023-04-23T17:49:33.797Z,96149.47
2023-04-23T17:51:37.749Z,96152.59
2023-04-23T17:53:42.040Z,96151.63
2023-04-23T17:55:44.603Z,96155.47
2023-04-23T17:57:47.131Z,96149.22
2023-04-23T17:59:49.651Z,96155.59
2023-04-23T18:01:52.249Z,96146.00
2023-04-23T18:03:55.058Z,96138.59
2023-04-23T18:05:57.834Z,96146.25
2023-04-23T18:08:01.847Z,96142.91
2023-04-23T18:10:06.457Z,96147.44
2023-04-23T18:12:09.022Z,96158.44
2023-04-23T18:14:12.826Z,96143.00
2023-04-23T18:16:15.521Z,96141.47
2023-04-23T18:18:20.776Z,96156.38
2023-04-23T18:20:24.933Z,96157.22
2023-04-23T18:22:27.841Z,96157.22
2023-04-23T18:24:31.760Z,96155.56
2023-04-23T18:26:34.282Z,96155.16
2023-04-23T18:28:37.156Z,96152.78
2023-04-23T18:30:39.854Z,96158.28
2023-04-23T18:32:48.060Z,96167.00
2023-04-23T18:34:50.763Z,96162.31
2023-04-23T18:36:56.464Z,96164.69
2023-04-23T18:38:59.536Z,96164.09
2023-04-23T18:41:04.574Z,96172.22
2023-04-23T18:43:07.163Z,96177.22
2023-04-23T18:45:10.698Z,96174.47
2023-04-23T18:47:13.331Z,96184.38
2023-04-23T18:49:46.288Z,96176.94
2023-04-23T18:51:52.019Z,96184.94
2023-04-23T18:53:54.554Z,96191.94
2023-04-23T18:55:57.159Z,96189.06
2023-04-23T18:58:02.416Z,96197.28
2023-04-23T19:00:07.332Z,96198.47
2023-04-23T19:02:11.834Z,96203.72
2023-04-23T19:04:17.279Z,96209.44
2023-04-23T19:06:20.022Z,96202.59
2023-04-23T19:08:28.235Z,96219.84
2023-04-23T19:10:30.823Z,96223.44
2023-04-23T19:12:33.359Z,96222.69
2023-04-23T19:14:37.569Z,96248.69
2023-04-23T19:16:40.401Z,96250.81
2023-04-23T19:18:43.102Z,96274.34
2023-04-23T19:20:45.718Z,96269.84
2023-04-23T19:22:50.495Z,96269.13
2023-04-23T19:24:53.188Z,96281.84
2023-04-23T19:26:56.326Z,96274.53
2023-04-23T19:28:58.865Z,96285.97
2023-04-23T19:31:04.018Z,96296.75
2023-04-23T19:33:06.881Z,96289.31
2023-04-23T19:35:09.623Z,96300.06
2023-04-23T19:37:12.419Z,96305.06
2023-04-23T19:39:14.968Z,96300.22
2023-04-23T19:41:17.500Z,96316.00
2023-04-23T19:43:20.183Z,96315.81
2023-04-23T19:45:22.733Z,96316.63
2023-04-23T19:47:26.632Z,96315.91
2023-04-23T19:49:29.241Z,96319.38
2023-04-23T19:51:35.392Z,96319.56
2023-04-23T19:53:37.978Z,96314.88
2023-04-23T19:55:40.584Z,96329.97
2023-04-23T19:57:43.152Z,96324.94
2023-04-23T19:59:45.881Z,96332.72
2023-04-23T20:01:48.486Z,96335.34
2023-04-23T20:03:53.585Z,96329.34
2023-04-23T20:05:58.316Z,96335.84
2023-04-23T20:08:04.105Z,96331.13
2023-04-23T20:10:07.810Z,96332.09
2023-04-23T20:12:10.427Z,96339.00
2023-04-23T20:14:13.772Z,96350.22
2023-04-23T20:16:16.480Z,96348.22
2023-04-23T20:18:19.532Z,96341.09
2023-04-23T20:20:25.470Z,96345.94
2023-04-23T20:22:28.221Z,96343.19
2023-04-23T20:24:31.000Z,96335.31
2023-04-23T20:26:33.647Z,96327.25
2023-04-23T20:28:37.036Z,96313.94
2023-04-23T20:30:39.566Z,96320.22
2023-04-23T20:32:42.573Z,96313.09
2023-04-23T20:34:45.312Z,96315.19
2023-04-23T20:36:51.022Z,96312.47
2023-04-23T20:38:54.213Z,96313.53
2023-04-23T20:40:57.078Z,96307.22
2023-04-23T20:42:59.863Z,96316.03
2023-04-23T20:45:02.405Z,96313.09
2023-04-23T20:47:05.609Z,96306.06
2023-04-23T20:49:08.776Z,96313.41
2023-04-23T20:51:11.290Z,96307.66
2023-04-23T20:53:15.388Z,96301.97
2023-04-23T20:55:18.037Z,96305.53
2023-04-23T20:57:20.966Z,96314.56
2023-04-23T20:59:23.549Z,96307.09
2023-04-23T21:01:26.564Z,96304.06
2023-04-23T21:03:32.688Z,96303.88
2023-04-23T21:05:35.450Z,96309.72
2023-04-23T21:07:37.981Z,96302.50
2023-04-23T21:09:42.225Z,96299.47
2023-04-23T21:11:44.929Z,96300.41
2023-04-23T21:13:47.912Z,96302.81
2023-04-23T21:15:51.834Z,96295.78
2023-04-23T21:17:54.403Z,96294.00
2023-04-23T21:19:59.296Z,96289.41
2023-04-23T21:22:01.856Z,96293.69
2023-04-23T21:24:04.714Z,96292.94
2023-04-23T21:26:08.664Z,96277.22
2023-04-23T21:28:11.321Z,96277.22
2023-04-23T21:30:22.036Z,96280.69
2023-04-23T21:32:24.597Z,96285.72
2023-04-23T21:34:27.424Z,96289.50
2023-04-23T21:36:29.996Z,96294.94
2023-04-23T21:38:33.257Z,96289.06
2023-04-23T21:40:37.146Z,96287.53
2023-04-23T21:42:41.079Z,96288.13
2023-04-23T21:44:43.660Z,96291.91
2023-04-23T21:46:46.749Z,96290.66
2023-04-23T21:48:50.207Z,96296.84
2023-04-23T21:50:53.623Z,96309.41
2023-04-23T21:52:58.267Z,96309.00
2023-04-23T21:55:01.146Z,96296.63
2023-04-23T21:57:03.834Z,96301.47
2023-04-23T21:59:07.710Z,96300.81
2023-04-23T22:01:10.355Z,96298.00
2023-04-23T22:03:17.835Z,96288.13
2023-04-23T22:05:28.458Z,96294.41
2023-04-23T22:07:32.251Z,96286.34
2023-04-23T22:09:34.808Z,96293.69
2023-04-23T22:11:37.370Z,96283.94
2023-04-23T22:13:40.009Z,96276.19
2023-04-23T22:15:44.266Z,96273.78
2023-04-23T22:17:50.317Z,96275.22
2023-04-23T22:19:53.161Z,96270.31
2023-04-23T22:21:55.899Z,96279.84
2023-04-23T22:23:58.420Z,96266.09
2023-04-23T22:26:01.023Z,96271.56
2023-04-23T22:28:03.683Z,96261.09
2023-04-23T22:30:08.589Z,96260.03
2023-04-23T22:32:12.539Z,96260.88
2023-04-23T22:34:15.118Z,96268.41
2023-04-23T22:36:17.898Z,96276.19
2023-04-23T22:38:21.020Z,96277.44
2023-04-23T22:40:23.687Z,96278.06
2023-04-23T22:42:26.255Z,96269.25
2023-04-23T22:44:28.770Z,96259.91
2023-04-23T22:46:31.851Z,96256.47
2023-04-23T22:48:37.676Z,96259.81
2023-04-23T22:50:42.626Z,96258.75
2023-04-23T22:52:45.328Z,96253.00
2023-04-23T22:54:48.434Z,96258.25
2023-04-23T22:56:51.158Z,96258.16
2023-04-23T22:58:53.794Z,96250.06
2023-04-23T23:00:56.435Z,96257.09
2023-04-23T23:02:59.069Z,96250.50
2023-04-23T23:05:03.157Z,96241.06
2023-04-23T23:07:05.873Z,96236.75
2023-04-23T23:09:08.435Z,96236.78
2023-04-23T23:11:11.004Z,96238.31
2023-04-23T23:13:13.565Z,96242.41
2023-04-23T23:15:16.110Z,96235.09
2023-04-23T23:17:18.661Z,96242.84
2023-04-23T23:19:21.264Z,96239.56
2023-04-23T23:21:25.421Z,96242.31
2023-04-23T23:23:27.986Z,96242.63
2023-04-23T23:25:30.621Z,96239.78
2023-04-23T23:27:33.184Z,96236.00
2023-04-23T23:29:35.834Z,96239.69
2023-04-23T23:31:38.505Z,96235.50
2023-04-23T23:33:41.235Z,96230.06
2023-04-23T23:35:43.925Z,96224.28
2023-04-23T23:37:47.813Z,96231.09
2023-04-23T23:39:50.365Z,96223.56
2023-04-23T23:41:52.950Z,96226.38
2023-04-23T23:43:55.680Z,96223.03
2023-04-23T23:45:58.286Z,96226.69
2023-04-23T23:48:00.980Z,96232.56
2023-04-23T23:50:03.627Z,96220.19
2023-04-23T23:52:06.202Z,96226.91
2023-04-23T23:54:10.075Z,96215.47
2023-04-23T23:56:12.596Z,96211.81
2023-04-23T23:58:15.228Z,96221.88
